Time;durP1;ratioP1;P1;durP2;ratioP2;P2;SDS_P1;SDS_P2;PMS_P1;PMS_P2;Temp;Humidity;BMP_temperature;BMP_pressure;BME280_temperature;BME280_humidity;BME280_pressure;Samples;Min_cycle;Max_cycle;Signal;HPM_P1;HPM_P2
2021/11/29 08:04:34;;;;;;;;;7.33;7.33;;;;;;;;5162746;27;1437582;-83
2021/11/29 08:06:59;;;;;;;;;5.67;5.00;;;;;;;;5199644;27;21026;-78
2021/11/29 08:09:24;;;;;;;;;7.33;5.67;;;;;;;;5200291;27;11311;-78
2021/11/29 08:11:50;;;;;;;;;7.00;6.00;;;;;;;;5197785;27;11781;-74
2021/11/29 08:14:15;;;;;;;;;8.33;8.33;;;;;;;;5198076;27;10347;-75
2021/11/29 08:16:40;;;;;;;;;6.67;6.67;;;;;;;;5197251;27;11347;-80
2021/11/29 08:19:06;;;;;;;;;6.00;5.00;;;;;;;;5044867;27;11722;-78
2021/11/29 08:21:31;;;;;;;;;6.33;6.00;;;;;;;;5116339;27;10289;-75
2021/11/29 08:23:56;;;;;;;;;6.00;6.00;;;;;;;;5131946;27;9704;-76
2021/11/29 08:26:22;;;;;;;;;4.00;2.00;;;;;;;;5135642;27;8870;-76
2021/11/29 08:28:47;;;;;;;;;5.33;5.33;;;;;;;;5135714;27;8798;-78
2021/11/29 08:31:12;;;;;;;;;9.00;6.00;;;;;;;;5136497;27;11289;-80
2021/11/29 08:33:38;;;;;;;;;7.67;7.00;;;;;;;;5136891;27;11967;-81
2021/11/29 08:36:04;;;;;;;;;9.00;6.67;;;;;;;;5137147;27;11962;-81
2021/11/29 08:38:29;;;;;;;;;7.00;7.00;;;;;;;;5137595;27;14212;-82
2021/11/29 08:40:55;;;;;;;;;7.00;5.50;;;;;;;;5078391;27;11349;-82
2021/11/29 08:43:20;;;;;;;;;7.00;5.67;;;;;;;;5125743;27;9417;-84
2021/11/29 08:45:47;;;;;;;;;4.00;2.00;;;;;;;;5116985;27;8840;-80
2021/11/29 08:48:13;;;;;;;;;4.50;3.00;;;;;;;;5136247;27;15291;-81
2021/11/29 08:50:42;;;;;;;;;5.50;3.50;;;;;;;;5118487;27;12242;-81
2021/11/29 08:53:09;;;;;;;;;7.25;6.00;;;;;;;;5136722;27;11438;-81
2021/11/29 08:55:35;;;;;;;;;9.75;6.00;;;;;;;;5136632;27;11453;-79
2021/11/29 08:58:01;;;;;;;;;7.50;7.50;;;;;;;;5137188;27;11513;-80
2021/11/29 09:00:27;;;;;;;;;7.25;6.50;;;;;;;;5137632;27;12186;-79
2021/11/29 09:02:52;;;;;;;;;11.50;7.00;;;;;;;;5117885;27;10041;-80
2021/11/29 09:05:18;;;;;;;;;8.00;8.00;;;;;;;;5135895;27;22716;-80
2021/11/29 09:07:44;;;;;;;;;9.75;8.25;;;;;;;;5136542;27;21536;-81
2021/11/29 09:10:10;;;;;;;;;22.67;20.67;;;;;;;;5136128;27;11373;-79
2021/11/29 09:12:36;;;;;;;;;18.33;16.33;;;;;;;;5136898;27;22873;-76
2021/11/29 09:15:03;;;;;;;;;21.00;20.00;;;;;;;;5128438;27;13973;-72
2021/11/29 09:17:29;;;;;;;;;8.50;6.75;;;;;;;;5121451;28;13835;-73
2021/11/29 09:19:54;;;;;;;;;7.00;6.75;;;;;;;;5102644;28;22500;-73
2021/11/29 09:22:20;;;;;;;;;6.75;6.00;;;;;;;;5121227;27;8960;-75
2021/11/29 09:24:45;;;;;;;;;8.25;7.50;;;;;;;;5104053;28;14012;-75
2021/11/29 09:27:11;;;;;;;;;9.50;8.25;;;;;;;;5121444;27;11350;-75
2021/11/29 09:29:36;;;;;;;;;6.33;6.33;;;;;;;;5103820;28;13745;-78
2021/11/29 09:32:04;;;;;;;;;2.33;2.33;;;;;;;;5122023;27;10435;-76
2021/11/29 09:34:29;;;;;;;;;6.00;5.33;;;;;;;;5121547;27;8809;-76
2021/11/29 09:36:54;;;;;;;;;1.00;1.00;;;;;;;;5121562;28;11373;-76
2021/11/29 09:39:20;;;;;;;;;6.50;5.00;;;;;;;;5121360;27;11400;-74
2021/11/29 09:41:45;;;;;;;;;7.67;6.00;;;;;;;;5104420;28;10712;-78
2021/11/29 09:44:10;;;;;;;;;5.00;5.00;;;;;;;;5121718;28;10827;-75
2021/11/29 09:46:36;;;;;;;;;8.00;7.00;;;;;;;;5121670;27;10289;-75
2021/11/29 09:49:02;;;;;;;;;6.50;6.50;;;;;;;;5121781;28;8924;-75
2021/11/29 09:51:27;;;;;;;;;5.75;5.00;;;;;;;;5121306;27;11501;-75
2021/11/29 09:53:53;;;;;;;;;6.75;6.75;;;;;;;;5121274;27;12442;-74
2021/11/29 09:56:19;;;;;;;;;6.75;5.50;;;;;;;;5100588;28;13511;-69
2021/11/29 09:58:47;;;;;;;;;5.75;5.50;;;;;;;;5119727;28;8966;-69
2021/11/29 10:01:13;;;;;;;;;6.25;6.00;;;;;;;;5120623;28;12421;-69
2021/11/29 10:03:38;;;;;;;;;7.00;5.25;;;;;;;;5119566;27;11515;-69
2021/11/29 10:06:03;;;;;;;;;6.50;6.25;;;;;;;;5118104;28;11965;-69
2021/11/29 10:08:34;;;;;;;;;7.00;6.50;;;;;;;;5101332;28;10778;-69
2021/11/29 10:11:05;;;;;;;;;5.50;5.00;;;;;;;;5097920;28;12866;-70
2021/11/29 10:13:43;;;;;;;;;5.25;5.25;;;;;;;;5119708;28;11677;-70
2021/11/29 10:16:08;;;;;;;;;3.00;3.00;;;;;;;;5117882;27;11432;-70
2021/11/29 10:18:34;;;;;;;;;5.25;5.25;;;;;;;;5100686;28;11632;-70
2021/11/29 10:21:00;;;;;;;;;5.00;5.00;;;;;;;;5119502;27;11999;-68
2021/11/29 10:23:25;;;;;;;;;5.75;5.00;;;;;;;;5120240;27;11447;-69
2021/11/29 10:25:51;;;;;;;;;5.00;4.00;;;;;;;;5100075;28;9016;-69
2021/11/29 10:28:28;;;;;;;;;5.00;3.00;;;;;;;;5121455;28;9427;-70
2021/11/29 10:31:12;;;;;;;;;6.50;5.00;;;;;;;;5121217;28;8789;-70
2021/11/29 10:33:58;;;;;;;;;3.00;3.00;;;;;;;;5102312;28;11376;-69
2021/11/29 10:36:24;;;;;;;;;5.25;3.00;;;;;;;;5120247;27;11376;-70
2021/11/29 10:38:53;;;;;;;;;3.00;3.00;;;;;;;;5120771;27;12336;-70
2021/11/29 10:41:26;;;;;;;;;2.00;2.00;;;;;;;;5120490;28;11396;-69
2021/11/29 10:43:52;;;;;;;;;1.00;1.00;;;;;;;;5121044;28;11550;-69
2021/11/29 10:46:26;;;;;;;;;3.25;2.00;;;;;;;;5120937;27;11336;-71
2021/11/29 10:48:52;;;;;;;;;16.00;16.00;;;;;;;;5120963;27;10386;-69
2021/11/29 10:51:19;;;;;;;;;3.00;3.00;;;;;;;;5120141;28;22475;-70
2021/11/29 10:53:51;;;;;;;;;2.25;1.25;;;;;;;;5119882;27;22792;-72
2021/11/29 10:56:17;;;;;;;;;2.25;1.00;;;;;;;;5120396;28;13100;-72
2021/11/29 10:58:45;;;;;;;;;0.00;0.00;;;;;;;;5120661;28;11370;-71
2021/11/29 11:01:10;;;;;;;;;1.00;1.00;;;;;;;;5118268;27;11610;-72
2021/11/29 11:03:55;;;;;;;;;1.00;1.00;;;;;;;;5119237;28;11354;-72
2021/11/29 11:06:28;;;;;;;;;1.00;1.00;;;;;;;;5119701;28;8890;-71
2021/11/29 11:08:54;;;;;;;;;1.00;1.00;;;;;;;;5120786;28;11305;-72
2021/11/29 11:11:31;;;;;;;;;1.50;1.50;;;;;;;;5119669;27;10984;-70
2021/11/29 11:14:02;;;;;;;;;1.00;1.00;;;;;;;;5119782;27;10778;-69
2021/11/29 11:16:44;;;;;;;;;0.75;0.75;;;;;;;;5120648;27;10659;-70
2021/11/29 11:19:21;;;;;;;;;1.00;1.00;;;;;;;;5119465;28;12003;-71
2021/11/29 11:21:46;;;;;;;;;1.00;1.00;;;;;;;;5119403;27;11556;-70
2021/11/29 11:24:22;;;;;;;;;1.00;1.00;;;;;;;;5120166;27;10786;-71
2021/11/29 11:26:48;;;;;;;;;2.50;2.00;;;;;;;;5118737;27;8813;-76
2021/11/29 11:29:14;;;;;;;;;1.00;1.00;;;;;;;;5119603;27;11045;-75
2021/11/29 11:31:40;;;;;;;;;1.00;1.00;;;;;;;;5120157;28;11251;-69
2021/11/29 11:34:05;;;;;;;;;0.25;0.25;;;;;;;;5119047;27;12043;-69
2021/11/29 11:36:31;;;;;;;;;1.00;1.00;;;;;;;;5119911;28;11467;-68
2021/11/29 11:39:04;;;;;;;;;1.00;1.00;;;;;;;;5119928;28;11418;-67
2021/11/29 11:41:29;;;;;;;;;1.00;1.00;;;;;;;;5119459;28;8781;-68
2021/11/29 11:43:55;;;;;;;;;0.00;0.00;;;;;;;;5118635;28;11469;-68
2021/11/29 11:46:21;;;;;;;;;1.00;1.00;;;;;;;;5119525;28;8910;-69
2021/11/29 11:48:47;;;;;;;;;0.50;0.50;;;;;;;;5120016;27;8842;-69
2021/11/29 11:51:12;;;;;;;;;0.00;0.00;;;;;;;;5119418;28;11757;-69
2021/11/29 11:53:39;;;;;;;;;1.00;1.00;;;;;;;;5120691;28;8809;-70
2021/11/29 11:56:05;;;;;;;;;1.00;1.00;;;;;;;;5101401;28;8897;-70
2021/11/29 11:58:54;;;;;;;;;2.25;1.00;;;;;;;;5119840;27;11434;-69
2021/11/29 12:01:23;;;;;;;;;1.00;1.00;;;;;;;;5113894;28;11362;-68
2021/11/29 12:03:49;;;;;;;;;0.50;0.50;;;;;;;;5119251;27;11410;-69
2021/11/29 12:06:18;;;;;;;;;0.75;0.00;;;;;;;;5119568;28;12587;-69
2021/11/29 12:08:47;;;;;;;;;0.00;0.00;;;;;;;;5119823;27;11351;-70
2021/11/29 12:11:32;;;;;;;;;1.00;1.00;;;;;;;;5118713;27;11391;-69
2021/11/29 12:14:03;;;;;;;;;0.25;0.25;;;;;;;;5118376;27;11365;-69
2021/11/29 12:16:30;;;;;;;;;0.00;0.00;;;;;;;;5120441;28;11520;-70
2021/11/29 12:18:55;;;;;;;;;0.00;0.00;;;;;;;;5119386;27;12066;-72
2021/11/29 12:21:23;;;;;;;;;0.00;0.00;;;;;;;;5119980;27;11351;-72
2021/11/29 12:23:56;;;;;;;;;0.00;0.00;;;;;;;;5119443;28;9001;-71
2021/11/29 12:26:40;;;;;;;;;0.00;0.00;;;;;;;;5119463;27;11345;-69
2021/11/29 12:29:06;;;;;;;;;0.00;0.00;;;;;;;;5114195;27;11389;-70
2021/11/29 12:31:38;;;;;;;;;0.00;0.00;;;;;;;;5111349;27;11414;-69
2021/11/29 12:34:06;;;;;;;;;0.50;0.50;;;;;;;;5115080;27;8788;-68
2021/11/29 12:36:50;;;;;;;;;0.00;0.00;;;;;;;;5099473;28;12054;-69
2021/11/29 12:39:54;;;;;;;;;0.00;0.00;;;;;;;;5099059;28;11362;-69
2021/11/29 12:42:20;;;;;;;;;0.00;0.00;;;;;;;;5035637;28;11517;-69
2021/11/29 12:44:45;;;;;;;;;0.50;0.00;;;;;;;;5034363;28;11477;-69
2021/11/29 12:47:27;;;;;;;;;0.00;0.00;;;;;;;;5065391;28;8799;-70
2021/11/29 12:49:54;;;;;;;;;1.00;0.00;;;;;;;;5100226;28;9835;-75
2021/11/29 12:52:40;;;;;;;;;0.00;0.00;;;;;;;;5102565;28;11361;-70
2021/11/29 12:55:25;;;;;;;;;2.00;1.00;;;;;;;;5101868;28;11509;-71
2021/11/29 12:58:18;;;;;;;;;1.00;1.00;;;;;;;;5101337;28;11357;-70
2021/11/29 13:00:45;;;;;;;;;0.75;0.75;;;;;;;;5078501;28;11358;-70
2021/11/29 13:03:11;;;;;;;;;1.50;0.25;;;;;;;;5101419;28;11571;-73
2021/11/29 13:05:41;;;;;;;;;1.50;0.75;;;;;;;;5117227;27;11357;-72
2021/11/29 13:08:25;;;;;;;;;1.00;1.00;;;;;;;;5111057;27;11414;-72
2021/11/29 13:11:10;;;;;;;;;1.00;1.00;;;;;;;;5100633;28;12247;-73
2021/11/29 13:13:38;;;;;;;;;1.75;0.50;;;;;;;;5120562;27;12180;-72
2021/11/29 13:16:03;;;;;;;;;1.00;1.00;;;;;;;;5121396;28;11464;-72
2021/11/29 13:18:41;;;;;;;;;0.75;0.75;;;;;;;;5121271;28;12265;-71
2021/11/29 13:21:07;;;;;;;;;0.50;0.50;;;;;;;;5121301;28;11579;-72
2021/11/29 13:24:56;;;;;;;;;0.00;0.00;;;;;;;;5206473;27;76861;-69
2021/11/29 13:27:23;;;;;;;;;0.00;0.00;;;;;;;;5197432;27;21066;-73
2021/11/29 13:29:56;;;;;;;;;0.00;0.00;;;;;;;;5178718;27;8800;-71
2021/11/29 13:32:23;;;;;;;;;1.00;1.00;;;;;;;;5198627;27;11559;-72
2021/11/29 13:34:51;;;;;;;;;0.25;0.25;;;;;;;;5198245;27;11599;-71
2021/11/29 13:37:21;;;;;;;;;0.00;0.00;;;;;;;;5198634;27;12038;-71
2021/11/29 13:39:48;;;;;;;;;0.00;0.00;;;;;;;;5198441;27;11427;-71
2021/11/29 13:42:14;;;;;;;;;0.00;0.00;;;;;;;;5198087;27;11418;-72
2021/11/29 13:45:11;;;;;;;;;0.25;0.25;;;;;;;;5198255;27;11560;-71
2021/11/29 13:47:39;;;;;;;;;1.50;0.00;;;;;;;;5195031;27;8800;-71
2021/11/29 13:50:07;;;;;;;;;1.00;0.75;;;;;;;;5198336;27;11617;-71
2021/11/29 13:52:33;;;;;;;;;2.50;0.00;;;;;;;;5194717;27;11483;-72
2021/11/29 13:55:01;;;;;;;;;0.00;0.00;;;;;;;;5197627;27;11685;-72
2021/11/29 13:57:34;;;;;;;;;0.25;0.25;;;;;;;;5199222;27;11412;-72
2021/11/29 14:00:25;;;;;;;;;0.00;0.00;;;;;;;;5198825;27;11489;-72
2021/11/29 14:03:01;;;;;;;;;1.00;1.00;;;;;;;;5159223;27;12238;-72
2021/11/29 14:05:30;;;;;;;;;1.00;0.25;;;;;;;;5199597;27;11414;-70
2021/11/29 14:08:04;;;;;;;;;0.00;0.00;;;;;;;;5195830;27;11543;-71
2021/11/29 14:10:47;;;;;;;;;0.75;0.75;;;;;;;;5193953;27;11551;-76
2021/11/29 14:13:14;;;;;;;;;1.00;1.00;;;;;;;;5195758;27;11435;-77
2021/11/29 14:15:55;;;;;;;;;2.00;1.00;;;;;;;;5177052;27;11482;-75
2021/11/29 14:18:24;;;;;;;;;1.00;1.00;;;;;;;;5193070;27;12141;-73
2021/11/29 14:20:51;;;;;;;;;1.00;1.00;;;;;;;;5194577;27;11410;-75
2021/11/29 14:23:16;;;;;;;;;1.00;1.00;;;;;;;;5194910;27;11682;-75
2021/11/29 14:25:45;;;;;;;;;1.00;1.00;;;;;;;;5197102;27;11583;-75
2021/11/29 14:28:11;;;;;;;;;1.75;1.75;;;;;;;;5192815;27;8923;-76
2021/11/29 14:30:37;;;;;;;;;1.00;1.00;;;;;;;;5197831;27;10891;-75
2021/11/29 14:33:02;;;;;;;;;1.00;1.00;;;;;;;;5197977;27;9620;-75
2021/11/29 14:35:28;;;;;;;;;1.00;1.00;;;;;;;;5189419;27;11452;-75
2021/11/29 14:37:57;;;;;;;;;1.00;1.00;;;;;;;;5184522;27;8823;-75
2021/11/29 14:40:22;;;;;;;;;1.00;1.00;;;;;;;;5184989;27;11404;-77
2021/11/29 14:42:49;;;;;;;;;2.00;1.00;;;;;;;;5184654;27;11600;-80
2021/11/29 14:45:17;;;;;;;;;1.00;1.00;;;;;;;;5184218;27;8772;-78
2021/11/29 14:47:47;;;;;;;;;1.00;1.00;;;;;;;;5184438;27;11576;-83
2021/11/29 14:50:28;;;;;;;;;3.25;1.75;;;;;;;;5183826;27;11410;-78
2021/11/29 14:53:09;;;;;;;;;4.00;0.25;;;;;;;;5178664;27;11658;-71
2021/11/29 14:55:54;;;;;;;;;2.00;1.00;;;;;;;;5174379;27;11537;-76
2021/11/29 14:58:20;;;;;;;;;1.00;1.00;;;;;;;;5164455;27;13855;-84
2021/11/29 15:00:47;;;;;;;;;1.75;1.75;;;;;;;;5183295;27;11430;-75
2021/11/29 15:03:16;;;;;;;;;1.00;1.00;;;;;;;;5182639;27;11493;-77
2021/11/29 15:05:42;;;;;;;;;1.50;1.00;;;;;;;;5183218;27;11549;-77
2021/11/29 15:08:21;;;;;;;;;2.00;2.00;;;;;;;;5183488;27;11524;-78
2021/11/29 15:10:47;;;;;;;;;1.00;1.00;;;;;;;;5183735;27;10358;-78
2021/11/29 15:13:15;;;;;;;;;2.00;2.00;;;;;;;;5183356;27;11412;-77
2021/11/29 15:15:41;;;;;;;;;1.25;1.25;;;;;;;;5183371;27;11426;-77
2021/11/29 15:18:07;;;;;;;;;1.25;1.00;;;;;;;;5183923;27;11437;-78
2021/11/29 15:20:37;;;;;;;;;1.00;1.00;;;;;;;;5183653;27;8752;-76
2021/11/29 15:23:04;;;;;;;;;2.00;1.00;;;;;;;;5175644;27;11456;-76
2021/11/29 15:25:41;;;;;;;;;1.25;1.00;;;;;;;;5162292;27;12236;-77
2021/11/29 15:28:14;;;;;;;;;1.00;1.00;;;;;;;;5162764;27;12252;-77
2021/11/29 15:30:55;;;;;;;;;0.00;0.00;;;;;;;;5162901;27;11446;-76
2021/11/29 15:33:25;;;;;;;;;1.00;0.00;;;;;;;;5162770;27;11419;-75
2021/11/29 15:35:53;;;;;;;;;1.00;1.00;;;;;;;;5144620;27;11432;-77
2021/11/29 15:38:19;;;;;;;;;1.00;1.00;;;;;;;;5162020;27;12233;-77
2021/11/29 15:40:53;;;;;;;;;2.00;2.00;;;;;;;;5162878;27;11444;-77
2021/11/29 15:43:21;;;;;;;;;3.00;2.00;;;;;;;;5162048;27;8798;-77
2021/11/29 15:45:54;;;;;;;;;2.25;2.00;;;;;;;;5162283;27;11503;-79
2021/11/29 15:48:27;;;;;;;;;4.00;1.50;;;;;;;;5162174;27;11460;-76
2021/11/29 15:50:53;;;;;;;;;1.00;1.00;;;;;;;;5143086;27;11457;-75
2021/11/29 15:53:19;;;;;;;;;2.00;1.50;;;;;;;;5161620;27;12689;-76
2021/11/29 15:55:44;;;;;;;;;1.00;1.00;;;;;;;;5161013;27;11523;-78
2021/11/29 15:58:17;;;;;;;;;2.00;2.00;;;;;;;;5161053;27;11912;-75
2021/11/29 16:00:42;;;;;;;;;2.00;2.00;;;;;;;;5161748;27;8766;-75
2021/11/29 16:03:07;;;;;;;;;2.75;2.75;;;;;;;;5176793;27;11471;-74
2021/11/29 16:05:33;;;;;;;;;1.50;1.50;;;;;;;;5146695;27;10658;-75
2021/11/29 16:07:58;;;;;;;;;2.00;2.00;;;;;;;;5161815;27;11278;-75
2021/11/29 16:10:23;;;;;;;;;2.75;2.00;;;;;;;;5161821;27;11463;-75
2021/11/29 16:12:49;;;;;;;;;3.00;3.00;;;;;;;;5142777;27;8935;-74
2021/11/29 16:15:14;;;;;;;;;3.75;2.00;;;;;;;;5161253;27;10455;-75
2021/11/29 16:17:39;;;;;;;;;2.50;2.50;;;;;;;;5161327;27;9490;-75
2021/11/29 16:20:05;;;;;;;;;1.00;1.00;;;;;;;;5143269;27;13404;-75
2021/11/29 16:22:31;;;;;;;;;4.00;3.00;;;;;;;;5161689;27;11386;-75
2021/11/29 16:24:56;;;;;;;;;2.50;2.00;;;;;;;;5161929;27;11615;-77
2021/11/29 16:27:21;;;;;;;;;2.00;2.00;;;;;;;;5143406;27;11120;-78
2021/11/29 16:29:47;;;;;;;;;1.50;1.50;;;;;;;;5162139;27;8763;-77
2021/11/29 16:32:13;;;;;;;;;3.00;1.00;;;;;;;;5161221;27;11435;-76
2021/11/29 16:34:39;;;;;;;;;2.25;2.25;;;;;;;;5165526;27;11422;-75
2021/11/29 16:37:05;;;;;;;;;2.75;2.00;;;;;;;;5182120;27;11451;-73
2021/11/29 16:39:30;;;;;;;;;2.00;2.00;;;;;;;;5182693;27;9789;-76
2021/11/29 16:41:56;;;;;;;;;4.50;2.25;;;;;;;;5182862;27;11560;-77
2021/11/29 16:44:21;;;;;;;;;3.00;3.00;;;;;;;;5182439;27;11874;-76
2021/11/29 16:46:46;;;;;;;;;5.25;3.00;;;;;;;;5182779;27;12599;-71
2021/11/29 16:49:12;;;;;;;;;0.25;0.25;;;;;;;;5182334;27;9441;-73
2021/11/29 16:51:37;;;;;;;;;1.00;0.25;;;;;;;;5178789;27;11562;-76
2021/11/29 16:54:03;;;;;;;;;0.25;0.25;;;;;;;;5174381;27;8927;-74
2021/11/29 16:56:29;;;;;;;;;0.00;0.00;;;;;;;;5180628;27;9475;-72
2021/11/29 16:58:54;;;;;;;;;1.00;1.00;;;;;;;;5177632;27;8913;-74
2021/11/29 17:01:19;;;;;;;;;2.00;0.00;;;;;;;;5180163;27;11446;-74
2021/11/29 17:03:45;;;;;;;;;0.00;0.00;;;;;;;;5160748;27;8814;-74
2021/11/29 17:06:10;;;;;;;;;0.00;0.00;;;;;;;;5142429;27;8821;-76
2021/11/29 17:08:36;;;;;;;;;1.00;1.00;;;;;;;;5168865;27;8811;-74
2021/11/29 17:11:01;;;;;;;;;0.00;0.00;;;;;;;;5177056;27;8820;-74
2021/11/29 17:13:27;;;;;;;;;0.00;0.00;;;;;;;;5179975;27;9512;-76
2021/11/29 17:15:52;;;;;;;;;0.00;0.00;;;;;;;;5181223;27;8945;-76
2021/11/29 17:18:17;;;;;;;;;0.00;0.00;;;;;;;;5177729;27;8776;-74
2021/11/29 17:20:43;;;;;;;;;0.50;0.00;;;;;;;;5180793;27;8915;-73
2021/11/29 17:23:08;;;;;;;;;1.00;1.00;;;;;;;;5177692;27;8832;-73
2021/11/29 17:25:34;;;;;;;;;0.75;0.75;;;;;;;;5178373;27;10434;-73
2021/11/29 17:28:00;;;;;;;;;1.00;1.00;;;;;;;;5087691;27;12845;-73
2021/11/29 17:30:26;;;;;;;;;1.25;1.25;;;;;;;;5134452;27;11459;-72
2021/11/29 17:32:51;;;;;;;;;1.00;1.00;;;;;;;;5132483;27;8820;-73
2021/11/29 17:35:17;;;;;;;;;2.50;1.25;;;;;;;;5119173;27;11753;-74
2021/11/29 17:37:43;;;;;;;;;0.75;0.75;;;;;;;;5136347;27;11442;-71
2021/11/29 17:40:08;;;;;;;;;1.00;1.00;;;;;;;;5138534;27;10258;-72
2021/11/29 17:42:34;;;;;;;;;1.50;1.50;;;;;;;;5138091;27;12675;-71
2021/11/29 17:44:59;;;;;;;;;1.00;1.00;;;;;;;;5137852;27;8847;-72
2021/11/29 17:47:24;;;;;;;;;2.00;0.75;;;;;;;;5138343;27;8825;-71
2021/11/29 17:49:50;;;;;;;;;2.00;0.75;;;;;;;;5138081;27;11292;-69
2021/11/29 17:52:15;;;;;;;;;0.50;0.50;;;;;;;;5137477;27;8958;-68
2021/11/29 17:54:40;;;;;;;;;1.00;1.00;;;;;;;;5136870;27;11340;-69
2021/11/29 17:57:06;;;;;;;;;1.00;1.00;;;;;;;;5137446;27;11778;-70
2021/11/29 17:59:32;;;;;;;;;2.50;1.00;;;;;;;;5137752;27;8789;-69
2021/11/29 18:01:57;;;;;;;;;0.75;0.00;;;;;;;;5137726;27;10397;-69
2021/11/29 18:04:23;;;;;;;;;0.50;0.00;;;;;;;;5137629;27;10470;-70
2021/11/29 18:06:55;;;;;;;;;0.00;0.00;;;;;;;;5138572;27;8901;-71
2021/11/29 18:14:48;;;;;;;;;0.00;0.00;;;;;;;;5140781;27;11429;-70
2021/11/29 18:17:13;;;;;;;;;0.00;0.00;;;;;;;;5141069;27;11487;-72
2021/11/29 18:19:39;;;;;;;;;3.50;1.50;;;;;;;;5141745;27;8824;-72
2021/11/29 18:22:05;;;;;;;;;1.00;1.00;;;;;;;;5122715;27;11674;-72
2021/11/29 18:24:31;;;;;;;;;1.50;1.50;;;;;;;;5140921;27;11539;-71
2021/11/29 18:26:57;;;;;;;;;1.00;1.00;;;;;;;;5140856;27;12096;-71
2021/11/29 18:29:22;;;;;;;;;0.75;0.75;;;;;;;;5142503;27;8902;-73
2021/11/29 18:31:48;;;;;;;;;1.00;1.00;;;;;;;;5140456;27;12046;-71
2021/11/29 18:34:13;;;;;;;;;2.50;1.00;;;;;;;;5140875;27;11603;-71
2021/11/29 18:36:39;;;;;;;;;1.00;1.00;;;;;;;;5141159;27;9548;-72
2021/11/29 18:39:04;;;;;;;;;4.00;2.00;;;;;;;;5141245;27;10201;-73
2021/11/29 18:41:30;;;;;;;;;2.50;2.50;;;;;;;;5142299;27;8804;-72
2021/11/29 18:43:55;;;;;;;;;5.00;4.00;;;;;;;;5141639;27;11607;-70
2021/11/29 18:46:21;;;;;;;;;4.25;4.00;;;;;;;;5140732;27;12164;-72
2021/11/29 18:48:46;;;;;;;;;4.00;4.00;;;;;;;;5140520;27;8947;-70
2021/11/29 18:51:11;;;;;;;;;2.00;2.00;;;;;;;;5142220;27;8789;-69
2021/11/29 18:53:37;;;;;;;;;4.25;4.00;;;;;;;;5122632;27;9062;-70
2021/11/29 18:56:02;;;;;;;;;4.00;4.00;;;;;;;;5140526;27;10845;-69
2021/11/29 18:58:27;;;;;;;;;4.25;4.25;;;;;;;;5126168;27;8813;-70
2021/11/29 19:00:59;;;;;;;;;4.00;4.00;;;;;;;;5129800;27;8811;-71
2021/11/29 19:03:28;;;;;;;;;5.00;4.00;;;;;;;;5121207;28;8931;-72
2021/11/29 19:05:54;;;;;;;;;8.25;8.00;;;;;;;;5121205;28;11478;-70
2021/11/29 19:08:19;;;;;;;;;5.25;4.50;;;;;;;;5120694;28;11473;-70
2021/11/29 19:10:45;;;;;;;;;8.00;5.00;;;;;;;;5102521;28;13849;-70
2021/11/29 19:13:10;;;;;;;;;4.00;4.00;;;;;;;;5102490;28;14211;-71
2021/11/29 19:15:35;;;;;;;;;7.50;5.00;;;;;;;;5120593;28;8783;-71
2021/11/29 19:18:01;;;;;;;;;10.00;6.00;;;;;;;;5121048;28;10475;-70
2021/11/29 19:20:27;;;;;;;;;5.50;5.00;;;;;;;;5120227;27;21750;-72
2021/11/29 19:22:56;;;;;;;;;14.33;11.33;;;;;;;;5119563;28;21639;-73
2021/11/29 19:25:21;;;;;;;;;6.00;6.00;;;;;;;;5120042;28;23513;-72
2021/11/29 19:27:49;;;;;;;;;1.67;0.00;;;;;;;;5120067;28;22167;-72
2021/11/29 19:30:16;;;;;;;;;8.75;8.75;;;;;;;;5120767;28;10402;-71
2021/11/29 19:32:41;;;;;;;;;9.00;9.00;;;;;;;;5118877;28;11925;-71
2021/11/29 19:35:08;;;;;;;;;9.00;8.33;;;;;;;;5119118;28;11475;-70
2021/11/29 19:37:33;;;;;;;;;8.33;8.33;;;;;;;;5120515;28;8807;-72
2021/11/29 19:39:59;;;;;;;;;8.33;6.67;;;;;;;;5121172;28;11484;-74
2021/11/29 19:42:24;;;;;;;;;8.00;8.00;;;;;;;;5118739;28;8811;-71
2021/11/29 19:44:49;;;;;;;;;8.33;7.33;;;;;;;;5120668;28;10470;-73
2021/11/29 19:47:15;;;;;;;;;6.67;6.67;;;;;;;;5120931;28;10413;-74
2021/11/29 19:49:40;;;;;;;;;8.00;6.00;;;;;;;;5120389;28;11304;-73
2021/11/29 19:52:06;;;;;;;;;9.67;8.00;;;;;;;;5120499;28;11270;-73
2021/11/29 19:54:31;;;;;;;;;11.00;6.67;;;;;;;;5126986;27;10456;-72
2021/11/29 19:56:59;;;;;;;;;9.00;9.00;;;;;;;;5137148;27;22011;-72
2021/11/29 19:59:24;;;;;;;;;10.33;9.67;;;;;;;;5139778;27;21387;-72
2021/11/29 20:01:50;;;;;;;;;10.67;6.00;;;;;;;;5139543;27;22535;-73
2021/11/29 20:04:17;;;;;;;;;9.00;8.67;;;;;;;;5138261;27;10323;-71
2021/11/29 20:06:43;;;;;;;;;8.00;6.00;;;;;;;;5119777;27;22252;-71
2021/11/29 20:09:08;;;;;;;;;6.67;6.00;;;;;;;;5138547;27;11476;-71
2021/11/29 20:11:33;;;;;;;;;11.67;9.00;;;;;;;;5136066;27;9542;-72
2021/11/29 20:14:02;;;;;;;;;13.67;12.33;;;;;;;;5138416;27;22056;-71
2021/11/29 20:16:27;;;;;;;;;14.67;11.67;;;;;;;;5138775;27;21653;-72
2021/11/29 20:18:57;;;;;;;;;12.33;12.00;;;;;;;;5120062;27;13459;-71
2021/11/29 20:21:24;;;;;;;;;12.00;11.67;;;;;;;;5139000;27;11616;-71
2021/11/29 20:23:49;;;;;;;;;13.00;12.00;;;;;;;;5138440;27;10453;-72
2021/11/29 20:26:15;;;;;;;;;10.33;10.33;;;;;;;;5138481;27;11543;-72
2021/11/29 20:28:41;;;;;;;;;12.00;9.00;;;;;;;;5119596;27;12112;-72
2021/11/29 20:31:07;;;;;;;;;11.00;8.00;;;;;;;;5137610;27;22679;-72
2021/11/29 20:33:35;;;;;;;;;7.00;5.00;;;;;;;;5117699;27;8792;-74
2021/11/29 20:36:01;;;;;;;;;9.00;9.00;;;;;;;;5118958;28;23036;-72
2021/11/29 20:38:27;;;;;;;;;12.00;8.00;;;;;;;;5119359;28;11451;-71
2021/11/29 20:40:52;;;;;;;;;11.00;11.00;;;;;;;;5121165;27;22722;-72
2021/11/29 20:43:18;;;;;;;;;10.33;8.67;;;;;;;;5127966;27;21536;-71
2021/11/29 20:45:43;;;;;;;;;14.33;13.33;;;;;;;;5118739;28;21383;-72
2021/11/29 20:48:09;;;;;;;;;12.00;10.33;;;;;;;;5118704;28;21613;-72
2021/11/29 20:50:34;;;;;;;;;24.00;18.00;;;;;;;;5126779;27;10521;-71
2021/11/29 20:52:59;;;;;;;;;16.67;16.67;;;;;;;;5136515;27;13424;-71
2021/11/29 20:55:25;;;;;;;;;21.00;17.00;;;;;;;;5138677;27;13271;-71
2021/11/29 20:57:50;;;;;;;;;21.67;21.67;;;;;;;;5119584;27;13779;-71
2021/11/29 21:00:16;;;;;;;;;24.00;22.67;;;;;;;;5134093;27;12281;-70
2021/11/29 21:02:45;;;;;;;;;18.33;16.33;;;;;;;;5127060;27;10546;-69
2021/11/29 21:05:10;;;;;;;;;26.33;24.33;;;;;;;;5127095;27;13616;-69
2021/11/29 21:07:36;;;;;;;;;26.00;21.00;;;;;;;;5126888;27;10702;-69
2021/11/29 21:10:02;;;;;;;;;27.67;25.00;;;;;;;;5130696;27;10908;-71
2021/11/29 21:12:28;;;;;;;;;24.00;21.00;;;;;;;;5137921;27;10419;-72
2021/11/29 21:14:54;;;;;;;;;25.00;23.33;;;;;;;;5137837;27;10506;-70
2021/11/29 21:17:19;;;;;;;;;23.67;23.67;;;;;;;;5137166;27;11883;-70
2021/11/29 21:19:54;;;;;;;;;22.67;19.33;;;;;;;;5137790;27;11836;-73
2021/11/29 21:22:23;;;;;;;;;27.67;21.67;;;;;;;;5119082;27;12267;-70
2021/11/29 21:24:53;;;;;;;;;21.33;15.00;;;;;;;;5137283;27;12419;-72
2021/11/29 21:27:18;;;;;;;;;20.33;20.33;;;;;;;;5137652;27;13458;-69
2021/11/29 21:29:44;;;;;;;;;24.00;19.00;;;;;;;;5132774;27;15150;-70
2021/11/29 21:32:09;;;;;;;;;22.00;19.00;;;;;;;;5120665;27;12549;-71
2021/11/29 21:34:34;;;;;;;;;22.00;19.33;;;;;;;;5124452;27;8903;-71
2021/11/29 21:37:01;;;;;;;;;19.00;17.00;;;;;;;;5133474;27;8845;-72
2021/11/29 21:39:26;;;;;;;;;21.00;16.33;;;;;;;;5137601;27;13486;-73
2021/11/29 21:41:51;;;;;;;;;26.33;21.00;;;;;;;;5137024;27;14355;-71
2021/11/29 21:44:16;;;;;;;;;20.00;18.00;;;;;;;;5120116;27;12817;-72
2021/11/29 21:46:42;;;;;;;;;22.00;17.33;;;;;;;;5141054;27;11736;-71
2021/11/29 21:49:07;;;;;;;;;23.67;20.00;;;;;;;;5124044;27;11631;-71
2021/11/29 21:51:32;;;;;;;;;17.33;17.33;;;;;;;;5143049;27;12697;-72
2021/11/29 21:53:58;;;;;;;;;23.33;20.67;;;;;;;;5123701;27;14556;-70
2021/11/29 21:56:23;;;;;;;;;19.67;19.67;;;;;;;;5120207;27;13772;-70
2021/11/29 21:58:50;;;;;;;;;20.67;18.67;;;;;;;;5142845;27;12714;-69
2021/11/29 22:01:15;;;;;;;;;17.67;15.00;;;;;;;;5142351;27;10602;-72
2021/11/29 22:03:40;;;;;;;;;18.33;18.33;;;;;;;;5142096;27;13245;-72
2021/11/29 22:06:05;;;;;;;;;15.00;14.67;;;;;;;;5123802;27;13297;-71
2021/11/29 22:08:31;;;;;;;;;19.33;15.67;;;;;;;;5142739;27;11363;-70
2021/11/29 22:10:56;;;;;;;;;18.00;15.67;;;;;;;;5141628;27;10927;-71
2021/11/29 22:13:21;;;;;;;;;17.33;10.67;;;;;;;;5143724;27;8812;-72
2021/11/29 22:15:47;;;;;;;;;18.00;14.00;;;;;;;;5142891;27;10528;-72
2021/11/29 22:18:12;;;;;;;;;20.00;18.00;;;;;;;;5143042;27;11387;-72
2021/11/29 22:20:38;;;;;;;;;15.67;14.33;;;;;;;;5142622;27;10762;-73
2021/11/29 22:23:04;;;;;;;;;21.00;15.00;;;;;;;;5116661;27;14675;-71
2021/11/29 22:25:33;;;;;;;;;17.00;15.00;;;;;;;;5126966;27;13461;-72
2021/11/29 22:27:58;;;;;;;;;18.00;17.33;;;;;;;;5121758;28;8799;-71
2021/11/29 22:30:23;;;;;;;;;17.00;14.00;;;;;;;;4992352;27;14114;-70
2021/11/29 22:32:49;;;;;;;;;19.67;17.67;;;;;;;;5068494;27;12459;-71
2021/11/29 22:35:14;;;;;;;;;23.33;20.33;;;;;;;;5142318;27;12505;-72
2021/11/29 22:37:39;;;;;;;;;17.33;15.33;;;;;;;;5142035;27;13659;-70
2021/11/29 22:40:06;;;;;;;;;20.33;17.67;;;;;;;;5140013;27;10647;-72
2021/11/29 22:42:31;;;;;;;;;24.33;20.00;;;;;;;;5162988;27;13298;-72
2021/11/29 22:44:56;;;;;;;;;18.67;17.67;;;;;;;;5145383;27;13359;-71
2021/11/29 22:47:22;;;;;;;;;16.00;16.00;;;;;;;;5142311;27;13213;-71
2021/11/29 22:49:48;;;;;;;;;19.00;16.00;;;;;;;;5142075;27;11355;-71
2021/11/29 22:52:13;;;;;;;;;16.00;16.00;;;;;;;;5140371;27;9429;-73
2021/11/29 22:54:38;;;;;;;;;16.00;16.00;;;;;;;;5141514;27;9508;-70